Time;durP1;ratioP1;P1;durP2;ratioP2;P2;SDS_P1;SDS_P2;PMS_P1;PMS_P2;Temp;Humidity;BMP_temperature;BMP_pressure;BME280_temperature;BME280_humidity;BME280_pressure;Samples;Min_cycle;Max_cycle;Signal;HPM_P1;HPM_P2
2023/04/11 00:00:51;;;;;;;2.63;1.83;;;20.00;43.30;;;;;;5016933;28;20201;-83
2023/04/11 00:03:21;;;;;;;2.00;1.90;;;20.00;43.30;;;;;;5016689;28;20212;-83
2023/04/11 00:05:48;;;;;;;1.92;1.65;;;20.00;43.30;;;;;;5017886;28;20200;-84
2023/04/11 00:08:15;;;;;;;1.98;1.80;;;20.00;43.50;;;;;;5016918;28;20595;-84
2023/04/11 00:10:43;;;;;;;1.80;1.70;;;19.90;43.30;;;;;;5016701;28;20647;-84
2023/04/11 00:13:10;;;;;;;2.13;1.92;;;20.00;43.50;;;;;;5016227;28;20228;-84
2023/04/11 00:15:38;;;;;;;2.20;2.00;;;20.00;43.50;;;;;;5016259;28;20231;-84
2023/04/11 00:18:06;;;;;;;1.83;1.73;;;20.00;43.40;;;;;;5016131;28;20682;-83
2023/04/11 00:20:35;;;;;;;2.08;1.90;;;20.00;43.50;;;;;;5016409;28;20664;-84
2023/04/11 00:23:02;;;;;;;2.40;1.77;;;20.00;43.60;;;;;;5016948;28;20220;-83
2023/04/11 00:25:31;;;;;;;1.73;1.63;;;20.00;43.50;;;;;;5016176;28;20229;-84
2023/04/11 00:27:59;;;;;;;2.17;1.98;;;19.90;43.50;;;;;;5016121;28;20224;-84
2023/04/11 00:30:26;;;;;;;1.70;1.60;;;19.90;43.60;;;;;;5016089;28;20207;-84
2023/04/11 00:32:54;;;;;;;2.17;1.98;;;19.90;43.50;;;;;;5015769;28;20235;-84
2023/04/11 00:35:22;;;;;;;1.70;1.58;;;19.90;43.70;;;;;;5016957;28;20239;-83
2023/04/11 00:37:54;;;;;;;1.92;1.73;;;19.90;43.70;;;;;;5016288;28;20208;-84
2023/04/11 00:40:22;;;;;;;1.70;1.60;;;19.90;43.80;;;;;;5017013;28;20193;-84
2023/04/11 00:42:48;;;;;;;1.85;1.67;;;19.90;43.80;;;;;;5016673;28;20212;-84
2023/04/11 00:45:17;;;;;;;2.00;1.83;;;19.90;43.80;;;;;;5017011;28;20565;-84
2023/04/11 00:47:44;;;;;;;1.73;1.63;;;19.90;43.90;;;;;;5016563;28;20204;-84
2023/04/11 00:50:14;;;;;;;1.98;1.70;;;19.90;44.50;;;;;;5016608;28;20643;-84
2023/04/11 00:52:43;;;;;;;2.10;2.00;;;19.90;44.10;;;;;;5016664;28;20228;-84
2023/04/11 00:55:12;;;;;;;1.65;1.55;;;19.90;44.40;;;;;;5016284;28;20223;-84
2023/04/11 00:57:40;;;;;;;2.13;1.70;;;19.90;44.20;;;;;;5034656;28;20187;-83
2023/04/11 01:00:10;;;;;;;1.92;1.75;;;19.90;43.80;;;;;;5039916;28;20180;-84
2023/04/11 01:02:37;;;;;;;1.90;1.80;;;19.90;44.20;;;;;;5039711;28;20268;-84
2023/04/11 01:05:04;;;;;;;1.77;1.67;;;19.90;44.20;;;;;;5023625;28;20169;-84
2023/04/11 01:07:32;;;;;;;2.97;1.88;;;19.90;44.20;;;;;;5035696;28;20224;-84
2023/04/11 01:09:59;;;;;;;1.70;1.60;;;19.90;43.90;;;;;;5025580;28;20197;-84
2023/04/11 01:12:30;;;;;;;1.73;1.60;;;19.80;44.00;;;;;;5016335;28;20225;-83
2023/04/11 01:15:00;;;;;;;1.63;1.52;;;19.80;44.20;;;;;;5018906;28;20670;-84
2023/04/11 01:17:27;;;;;;;2.17;1.70;;;19.90;44.20;;;;;;5015267;28;20257;-84
2023/04/11 01:19:54;;;;;;;1.95;1.83;;;19.80;44.40;;;;;;5015710;28;20255;-84
2023/04/11 01:22:22;;;;;;;2.00;1.80;;;19.80;44.80;;;;;;5015673;28;20216;-84
2023/04/11 01:24:51;;;;;;;1.70;1.60;;;19.90;44.50;;;;;;4999338;28;20754;-84
2023/04/11 01:27:19;;;;;;;1.70;1.60;;;19.80;44.40;;;;;;5015186;28;20603;-83
2023/04/11 01:29:47;;;;;;;1.60;1.50;;;19.90;44.20;;;;;;5015513;28;20227;-83
2023/04/11 01:32:13;;;;;;;1.80;1.70;;;19.80;43.80;;;;;;5014883;28;20764;-83
2023/04/11 01:34:41;;;;;;;1.70;1.60;;;19.90;44.60;;;;;;5015032;28;20667;-83
2023/04/11 01:37:08;;;;;;;1.95;1.63;;;19.80;44.40;;;;;;5014935;28;20193;-83
2023/04/11 01:39:36;;;;;;;1.70;1.60;;;19.80;44.20;;;;;;5014700;28;20208;-84
2023/04/11 01:42:04;;;;;;;1.60;1.50;;;19.80;44.70;;;;;;5014022;28;20212;-84
2023/04/11 01:44:32;;;;;;;1.65;1.55;;;19.80;44.20;;;;;;5014838;28;20201;-84
2023/04/11 01:46:59;;;;;;;1.70;1.60;;;19.90;44.50;;;;;;5014580;28;20200;-83
2023/04/11 01:49:26;;;;;;;2.10;1.85;;;19.80;44.50;;;;;;4998628;28;20197;-84
2023/04/11 01:51:54;;;;;;;1.67;1.58;;;19.80;44.40;;;;;;5014920;28;20196;-84
2023/04/11 01:54:21;;;;;;;1.98;1.70;;;19.90;44.60;;;;;;5015165;28;20635;-84
2023/04/11 01:56:48;;;;;;;1.52;1.42;;;19.80;44.60;;;;;;5014676;28;20201;-84
2023/04/11 01:59:18;;;;;;;1.73;1.63;;;19.80;44.80;;;;;;5015133;28;20227;-84
2023/04/11 02:01:45;;;;;;;1.80;1.70;;;19.80;44.80;;;;;;5014717;28;20287;-84
2023/04/11 02:04:12;;;;;;;2.50;1.77;;;19.80;44.80;;;;;;5014418;28;20204;-84
2023/04/11 02:06:41;;;;;;;1.98;1.70;;;19.80;45.00;;;;;;5014558;28;20702;-84
2023/04/11 02:09:08;;;;;;;1.80;1.70;;;19.80;45.10;;;;;;5014355;28;20204;-82
2023/04/11 02:11:36;;;;;;;2.05;1.90;;;19.80;45.20;;;;;;4998330;28;20200;-83
2023/04/11 02:14:05;;;;;;;1.60;1.50;;;19.80;45.20;;;;;;5013970;28;20287;-82
2023/04/11 02:16:33;;;;;;;1.50;1.40;;;19.80;45.20;;;;;;5013974;28;20207;-84
2023/04/11 02:19:02;;;;;;;1.88;1.50;;;19.80;45.10;;;;;;5014380;28;20307;-83
2023/04/11 02:21:29;;;;;;;1.83;1.73;;;19.80;45.10;;;;;;5013698;28;20200;-84
2023/04/11 02:23:57;;;;;;;1.65;1.55;;;19.80;45.40;;;;;;5013721;28;20216;-84
2023/04/11 02:26:26;;;;;;;1.60;1.50;;;19.80;45.40;;;;;;5013776;28;20207;-83
2023/04/11 02:28:55;;;;;;;1.55;1.45;;;19.80;45.60;;;;;;5013786;28;20209;-83
2023/04/11 02:31:23;;;;;;;1.30;1.20;;;19.80;45.60;;;;;;5013555;28;20204;-84
2023/04/11 02:33:51;;;;;;;1.67;1.50;;;19.80;45.60;;;;;;5013427;28;20675;-84
2023/04/11 02:36:18;;;;;;;1.70;1.50;;;19.80;45.60;;;;;;5014610;28;20204;-84
2023/04/11 02:38:46;;;;;;;1.73;1.40;;;19.70;45.50;;;;;;5013717;28;20201;-84
2023/04/11 02:41:13;;;;;;;1.27;1.17;;;19.70;45.50;;;;;;5014170;28;20296;-84
2023/04/11 02:43:41;;;;;;;1.52;1.30;;;19.70;45.60;;;;;;5013650;28;20235;-84
2023/04/11 02:46:08;;;;;;;1.20;1.20;;;19.70;45.50;;;;;;5014719;28;20203;-84
2023/04/11 02:48:36;;;;;;;1.00;1.00;;;19.70;45.70;;;;;;5014177;28;20235;-84
2023/04/11 02:51:06;;;;;;;1.40;1.30;;;19.70;45.70;;;;;;5014264;28;20201;-84
2023/04/11 02:53:33;;;;;;;1.08;1.08;;;19.70;45.70;;;;;;5013611;28;20694;-84
2023/04/11 02:56:01;;;;;;;1.50;1.40;;;19.70;45.70;;;;;;5013818;28;20196;-84
2023/04/11 02:58:29;;;;;;;1.85;1.55;;;19.70;45.70;;;;;;5014637;28;20203;-84
2023/04/11 03:01:02;;;;;;;1.50;1.40;;;19.60;45.70;;;;;;5014328;28;20212;-84
2023/04/11 03:03:29;;;;;;;1.50;1.40;;;19.70;45.90;;;;;;5014394;28;20220;-84
2023/04/11 03:05:57;;;;;;;1.98;1.35;;;19.60;45.90;;;;;;5014157;28;20296;-84
2023/04/11 03:08:26;;;;;;;1.30;1.20;;;19.60;45.90;;;;;;5013349;28;20193;-84
2023/04/11 03:10:54;;;;;;;1.20;1.20;;;19.60;45.90;;;;;;5013260;28;20197;-83
2023/04/11 03:13:23;;;;;;;1.45;1.30;;;19.60;46.00;;;;;;5013264;28;20217;-84
2023/04/11 03:15:50;;;;;;;1.45;1.35;;;19.60;46.00;;;;;;5013238;28;20204;-84
2023/04/11 03:18:18;;;;;;;1.40;1.30;;;19.60;46.00;;;;;;5013420;28;20221;-84
2023/04/11 03:20:47;;;;;;;1.40;1.30;;;19.60;46.10;;;;;;5013314;28;20200;-83
2023/04/11 03:23:16;;;;;;;1.50;1.40;;;19.60;46.10;;;;;;5013775;28;20208;-83
2023/04/11 03:25:46;;;;;;;1.25;1.17;;;19.60;46.20;;;;;;5012946;28;20509;-83
2023/04/11 03:28:15;;;;;;;1.58;1.40;;;19.60;46.30;;;;;;5013238;28;20193;-84
2023/04/11 03:30:42;;;;;;;1.67;1.30;;;19.60;46.30;;;;;;4996649;28;20197;-83
2023/04/11 03:33:12;;;;;;;1.35;1.25;;;19.60;46.20;;;;;;5013176;28;20592;-84
2023/04/11 03:35:40;;;;;;;1.33;1.20;;;19.60;46.20;;;;;;5013484;28;20220;-83
2023/04/11 03:38:07;;;;;;;1.30;1.20;;;19.60;46.10;;;;;;4996447;28;20263;-84
2023/04/11 03:40:35;;;;;;;1.40;1.30;;;19.60;46.10;;;;;;5012839;28;20659;-84
2023/04/11 03:43:09;;;;;;;1.50;1.30;;;19.70;46.10;;;;;;5013086;28;20247;-84
2023/04/11 03:45:37;;;;;;;1.50;1.40;;;19.70;46.10;;;;;;5012884;28;20220;-84
2023/04/11 03:48:11;;;;;;;2.10;1.30;;;19.70;46.10;;;;;;5012489;28;20189;-84
2023/04/11 03:50:52;;;;;;;1.40;1.30;;;19.70;46.10;;;;;;5013346;28;20189;-84
2023/04/11 03:53:25;;;;;;;1.27;1.17;;;19.70;46.10;;;;;;5013363;28;20633;-84
2023/04/11 03:55:57;;;;;;;1.38;1.25;;;19.70;46.10;;;;;;4997786;28;20189;-84
2023/04/11 03:58:32;;;;;;;1.25;1.15;;;19.70;46.00;;;;;;4997791;28;20215;-83
2023/04/11 04:01:01;;;;;;;1.50;1.40;;;19.80;46.10;;;;;;5013250;28;20212;-84
2023/04/11 04:03:29;;;;;;;1.52;1.15;;;19.70;45.90;;;;;;5012332;28;20319;-84
2023/04/11 04:05:58;;;;;;;1.10;1.10;;;19.70;45.90;;;;;;4999996;28;20231;-84
2023/04/11 04:08:25;;;;;;;1.40;1.30;;;19.70;46.00;;;;;;5016380;28;20205;-82
2023/04/11 04:10:52;;;;;;;2.05;1.48;;;19.70;46.10;;;;;;5015950;28;20761;-83
2023/04/11 04:13:20;;;;;;;1.00;0.90;;;19.70;46.10;;;;;;5015406;28;20236;-85
2023/04/11 04:15:54;;;;;;;1.50;1.40;;;19.70;46.20;;;;;;5016767;28;20201;-86
2023/04/11 04:18:25;;;;;;;1.20;1.10;;;19.70;46.30;;;;;;5016391;28;20189;-85
2023/04/11 04:20:53;;;;;;;1.10;1.02;;;19.70;46.40;;;;;;5017431;28;20255;-84
2023/04/11 04:23:22;;;;;;;1.30;1.20;;;19.60;46.30;;;;;;5037430;28;20217;-85
2023/04/11 04:26:23;;;;;;;1.20;1.10;;;19.70;46.30;;;;;;5012136;28;20203;-84
2023/04/11 04:29:03;;;;;;;1.23;1.13;;;19.70;46.50;;;;;;5002436;28;20202;-84
2023/04/11 04:31:43;;;;;;;1.23;1.10;;;19.70;46.60;;;;;;5017930;28;20197;-85
2023/04/11 04:34:11;;;;;;;1.65;1.23;;;19.70;46.60;;;;;;5020156;28;20221;-84
2023/04/11 04:36:46;;;;;;;1.52;1.35;;;19.70;46.80;;;;;;5019010;28;20189;-83
2023/04/11 04:39:18;;;;;;;1.45;1.30;;;19.70;47.00;;;;;;5020916;28;20192;-84
2023/04/11 04:41:56;;;;;;;2.17;1.33;;;19.70;47.10;;;;;;5017345;28;20227;-84
2023/04/11 04:44:28;;;;;;;2.50;1.20;;;19.70;47.40;;;;;;5018743;28;20530;-84
2023/04/11 04:47:00;;;;;;;1.80;1.20;;;19.70;47.80;;;;;;5017631;28;20193;-84
2023/04/11 04:49:28;;;;;;;1.75;1.15;;;19.70;47.90;;;;;;5018649;28;20192;-83
2023/04/11 04:51:56;;;;;;;1.30;1.13;;;19.70;47.80;;;;;;5019660;28;20189;-85
2023/04/11 04:54:23;;;;;;;1.27;1.17;;;19.70;47.80;;;;;;5015549;28;20267;-84
2023/04/11 04:56:52;;;;;;;1.98;1.25;;;19.70;47.90;;;;;;5018062;28;20264;-84
2023/04/11 04:59:21;;;;;;;1.35;1.10;;;19.70;47.00;;;;;;5001396;28;20201;-84
2023/04/11 05:01:54;;;;;;;2.05;1.20;;;19.70;47.20;;;;;;5016389;28;20201;-84
2023/04/11 05:04:30;;;;;;;2.08;1.10;;;19.70;46.70;;;;;;5017646;28;20189;-84
2023/04/11 05:06:58;;;;;;;1.55;1.02;;;19.70;46.60;;;;;;5016083;28;20196;-84
2023/04/11 05:09:28;;;;;;;1.30;1.20;;;19.70;46.70;;;;;;4999125;28;20208;-83
2023/04/11 05:12:07;;;;;;;1.40;1.25;;;19.70;46.70;;;;;;5015032;28;20675;-81
2023/04/11 05:14:36;;;;;;;1.02;1.00;;;19.70;46.50;;;;;;5015245;28;20573;-81
2023/04/11 05:17:03;;;;;;;2.30;1.20;;;19.70;46.40;;;;;;5013764;28;20259;-82
2023/04/11 05:19:32;;;;;;;1.10;1.00;;;19.70;46.50;;;;;;5014676;28;20682;-82
2023/04/11 05:21:59;;;;;;;1.33;1.20;;;19.60;46.40;;;;;;5016373;28;20224;-82
2023/04/11 05:24:30;;;;;;;1.65;1.45;;;19.60;46.30;;;;;;5015146;28;20211;-82
2023/04/11 05:26:59;;;;;;;1.77;1.27;;;19.60;46.30;;;;;;5015561;28;20193;-81
2023/04/11 05:29:26;;;;;;;1.48;0.98;;;19.60;46.30;;;;;;5014472;28;20197;-82
2023/04/11 05:31:54;;;;;;;2.35;1.30;;;19.60;46.30;;;;;;5014667;28;20200;-83
2023/04/11 05:34:21;;;;;;;3.58;1.20;;;19.60;47.00;;;;;;5015474;28;20222;-82
2023/04/11 05:36:53;;;;;;;1.40;1.20;;;19.60;46.20;;;;;;5015253;28;20610;-81
2023/04/11 05:39:20;;;;;;;1.10;1.10;;;19.50;46.20;;;;;;5014727;28;20664;-82
2023/04/11 05:41:50;;;;;;;1.20;1.10;;;19.60;46.40;;;;;;5014386;28;20220;-86
2023/04/11 05:44:17;;;;;;;1.38;1.10;;;19.60;46.20;;;;;;4998621;28;20189;-82
2023/04/11 05:46:44;;;;;;;1.15;1.05;;;19.60;46.00;;;;;;5014763;28;20642;-83
2023/04/11 05:49:11;;;;;;;1.17;1.08;;;19.60;45.90;;;;;;5014741;28;20201;-82
2023/04/11 05:51:38;;;;;;;1.77;1.13;;;19.60;45.90;;;;;;5014205;28;20193;-82
2023/04/11 05:54:08;;;;;;;1.15;1.00;;;19.60;45.80;;;;;;5015130;28;20220;-82
2023/04/11 05:56:38;;;;;;;1.10;1.10;;;19.60;45.70;;;;;;5014960;28;20655;-83
2023/04/11 05:59:05;;;;;;;1.05;0.95;;;19.70;45.70;;;;;;5014762;28;20759;-83
2023/04/11 06:01:32;;;;;;;1.45;1.17;;;19.70;45.50;;;;;;5014493;28;20197;-82
2023/04/11 06:03:59;;;;;;;1.05;1.00;;;19.80;45.50;;;;;;5014722;28;20242;-82
2023/04/11 06:06:26;;;;;;;1.33;1.23;;;19.80;45.30;;;;;;5014922;28;20196;-83
2023/04/11 06:08:54;;;;;;;1.10;1.00;;;19.90;45.30;;;;;;5014776;28;20574;-82
2023/04/11 06:11:24;;;;;;;2.05;1.20;;;19.90;45.30;;;;;;5014505;28;20207;-81
2023/04/11 06:13:51;;;;;;;0.85;0.85;;;20.00;45.30;;;;;;5014845;28;20260;-83
2023/04/11 06:16:18;;;;;;;1.50;1.20;;;20.00;44.90;;;;;;5015540;28;20214;-83
2023/04/11 06:18:46;;;;;;;1.17;1.08;;;20.00;44.90;;;;;;5013931;28;20280;-82
2023/04/11 06:21:13;;;;;;;1.05;0.90;;;20.00;44.80;;;;;;5013782;28;20200;-83
2023/04/11 06:23:40;;;;;;;1.77;1.30;;;20.00;45.40;;;;;;5014530;28;20220;-82
2023/04/11 06:26:08;;;;;;;1.48;1.25;;;20.00;44.70;;;;;;5014725;28;20199;-82
2023/04/11 06:28:36;;;;;;;1.15;1.05;;;20.00;44.70;;;;;;5014492;28;20205;-82
2023/04/11 06:31:03;;;;;;;0.95;0.95;;;20.00;44.80;;;;;;5014022;28;20211;-83
2023/04/11 06:33:30;;;;;;;1.20;1.02;;;20.00;44.80;;;;;;5014496;28;20216;-83
2023/04/11 06:35:57;;;;;;;1.13;0.90;;;20.00;44.60;;;;;;4997749;28;20212;-83
2023/04/11 06:38:25;;;;;;;1.77;1.10;;;19.90;44.90;;;;;;5014396;28;20207;-83
2023/04/11 06:40:53;;;;;;;1.20;1.10;;;20.00;45.00;;;;;;5014087;28;20193;-82
2023/04/11 06:43:20;;;;;;;1.38;1.17;;;20.00;45.00;;;;;;5013636;28;20213;-83
2023/04/11 06:45:49;;;;;;;0.88;0.82;;;20.00;44.80;;;;;;5016166;28;20197;-83
2023/04/11 06:48:17;;;;;;;0.80;0.80;;;19.90;44.80;;;;;;5018234;28;20200;-83
2023/04/11 06:50:45;;;;;;;1.20;1.10;;;19.90;45.10;;;;;;5017665;28;20655;-83
2023/04/11 06:53:12;;;;;;;1.10;1.00;;;19.80;45.20;;;;;;5017388;28;20231;-83
2023/04/11 06:55:39;;;;;;;1.23;1.10;;;19.80;45.30;;;;;;5016874;28;20220;-83
2023/04/11 06:58:07;;;;;;;2.85;1.00;;;19.70;45.50;;;;;;4998486;28;20208;-83
2023/04/11 07:00:34;;;;;;;2.00;1.20;;;19.70;45.50;;;;;;5014450;28;20197;-83
2023/04/11 07:03:06;;;;;;;0.93;0.93;;;19.60;45.50;;;;;;5014997;28;20216;-83
2023/04/11 07:05:33;;;;;;;1.20;1.10;;;19.60;45.50;;;;;;5014676;28;20212;-82
2023/04/11 07:08:00;;;;;;;1.33;1.15;;;19.60;45.50;;;;;;5014895;28;20204;-82
2023/04/11 07:10:28;;;;;;;1.10;1.00;;;19.60;45.50;;;;;;5013808;28;20205;-82
2023/04/11 07:12:55;;;;;;;1.00;1.00;;;19.60;45.50;;;;;;5013509;28;20231;-83
2023/04/11 07:15:22;;;;;;;3.13;1.10;;;19.60;45.40;;;;;;5053510;23;20229;-81
2023/04/11 07:17:50;;;;;;;1.30;1.10;;;19.60;45.40;;;;;;5014865;28;20215;-82
2023/04/11 07:20:19;;;;;;;1.15;1.10;;;19.60;45.50;;;;;;5014295;28;20249;-82
2023/04/11 07:22:47;;;;;;;0.90;0.90;;;19.60;45.50;;;;;;5014006;28;20315;-82
2023/04/11 07:25:14;;;;;;;1.10;1.00;;;19.60;45.40;;;;;;5014753;28;20196;-82
2023/04/11 07:27:45;;;;;;;1.20;1.10;;;19.70;45.30;;;;;;4998022;28;20262;-81
2023/04/11 07:30:13;;;;;;;1.50;1.00;;;19.60;45.20;;;;;;5015338;28;20205;-82
2023/04/11 07:32:40;;;;;;;1.25;1.15;;;19.70;45.40;;;;;;5014605;28;20221;-82
2023/04/11 07:35:09;;;;;;;1.85;1.17;;;19.70;45.40;;;;;;5007627;28;20217;-82
2023/04/11 07:37:38;;;;;;;0.95;0.90;;;19.70;45.50;;;;;;5013835;28;20230;-82
2023/04/11 07:40:10;;;;;;;1.67;1.00;;;19.80;45.30;;;;;;5017008;28;20192;-82
2023/04/11 07:42:37;;;;;;;1.13;1.00;;;19.80;45.20;;;;;;5036917;28;20234;-83
2023/04/11 07:45:04;;;;;;;1.63;1.13;;;19.80;45.10;;;;;;5019244;28;20204;-82
2023/04/11 07:47:31;;;;;;;1.20;1.10;;;19.80;45.10;;;;;;5018191;28;20228;-82
2023/04/11 07:49:59;;;;;;;1.58;0.90;;;19.80;45.50;;;;;;5020202;28;20189;-82
2023/04/11 07:52:26;;;;;;;0.77;0.77;;;19.90;45.20;;;;;;5021814;28;20524;-82
2023/04/11 07:54:54;;;;;;;1.33;1.00;;;20.00;45.10;;;;;;5005204;28;20217;-82
2023/04/11 07:57:21;;;;;;;0.93;0.82;;;20.10;45.10;;;;;;5021825;28;20609;-82
2023/04/11 07:59:49;;;;;;;1.48;1.20;;;20.30;44.70;;;;;;5019820;28;20212;-82
2023/04/11 08:02:16;;;;;;;1.17;1.00;;;20.50;44.40;;;;;;5017698;28;20224;-82
2023/04/11 08:04:43;;;;;;;1.73;1.10;;;20.70;44.10;;;;;;5017789;28;20197;-82
2023/04/11 08:07:10;;;;;;;2.40;1.20;;;20.80;43.60;;;;;;5018685;28;20244;-82
2023/04/11 08:09:37;;;;;;;2.15;1.27;;;20.90;43.40;;;;;;5002825;28;20671;-82
2023/04/11 08:12:06;;;;;;;1.63;0.90;;;21.10;43.30;;;;;;5018745;28;20209;-83
2023/04/11 08:14:33;;;;;;;1.65;1.20;;;21.10;43.00;;;;;;5018203;28;20228;-82
2023/04/11 08:17:00;;;;;;;1.08;1.00;;;21.20;43.00;;;;;;5017102;28;20572;-82
2023/04/11 08:19:27;;;;;;;1.20;1.10;;;21.30;42.90;;;;;;5016911;28;20266;-82
2023/04/11 08:21:54;;;;;;;1.10;1.00;;;21.20;42.70;;;;;;5017559;28;20193;-83
2023/04/11 08:24:21;;;;;;;1.20;1.08;;;21.20;42.70;;;;;;5016853;28;20255;-82
2023/04/11 08:26:48;;;;;;;1.35;1.15;;;21.20;42.80;;;;;;5016695;28;20219;-82
2023/04/11 08:29:17;;;;;;;1.55;1.17;;;21.20;42.90;;;;;;5016757;28;20247;-82
2023/04/11 08:31:44;;;;;;;1.17;1.00;;;21.20;42.50;;;;;;5016355;28;20616;-81
2023/04/11 08:34:12;;;;;;;1.67;1.05;;;21.20;42.60;;;;;;5016716;28;20232;-82
2023/04/11 08:36:40;;;;;;;2.22;1.38;;;21.20;42.50;;;;;;5016276;28;20216;-82
2023/04/11 08:39:07;;;;;;;1.20;1.10;;;21.20;42.60;;;;;;5016329;28;20207;-82
2023/04/11 08:41:34;;;;;;;1.23;1.08;;;21.20;42.50;;;;;;5016239;28;20205;-82
2023/04/11 08:44:02;;;;;;;1.38;0.90;;;21.30;42.50;;;;;;5000941;28;20217;-82
2023/04/11 08:46:32;;;;;;;1.88;1.20;;;21.30;42.30;;;;;;5017248;28;20203;-82
2023/04/11 08:49:00;;;;;;;0.90;0.90;;;21.30;42.30;;;;;;5016582;28;20201;-83
2023/04/11 08:51:27;;;;;;;1.92;1.00;;;21.30;42.30;;;;;;5016982;28;20287;-82
2023/04/11 08:53:56;;;;;;;2.17;1.10;;;21.30;42.10;;;;;;5016766;28;20315;-83
2023/04/11 08:56:23;;;;;;;1.40;1.00;;;21.40;42.10;;;;;;5017248;28;20217;-82
2023/04/11 08:58:50;;;;;;;2.15;1.23;;;21.40;42.20;;;;;;5016111;28;20554;-82
2023/04/11 09:01:29;;;;;;;0.95;0.95;;;21.40;42.20;;;;;;5017575;28;20635;-82
2023/04/11 09:03:58;;;;;;;2.00;0.90;;;21.40;42.20;;;;;;5016921;28;20687;-82
2023/04/11 09:06:29;;;;;;;1.58;1.10;;;21.50;42.10;;;;;;5029092;28;20212;-82
2023/04/11 09:08:57;;;;;;;1.40;1.10;;;21.50;41.70;;;;;;5021307;28;20215;-82
2023/04/11 09:11:24;;;;;;;1.27;0.90;;;21.60;41.70;;;;;;5017001;28;20204;-82
2023/04/11 09:14:05;;;;;;;1.20;1.10;;;21.80;41.50;;;;;;5016426;28;20239;-82
2023/04/11 09:16:33;;;;;;;1.70;1.17;;;21.90;41.30;;;;;;5016824;28;20299;-81
2023/04/11 09:19:01;;;;;;;1.80;1.05;;;22.00;41.30;;;;;;5016701;28;20200;-82
2023/04/11 09:21:29;;;;;;;2.00;1.00;;;22.00;41.30;;;;;;5017302;28;20216;-82
2023/04/11 09:24:06;;;;;;;1.77;0.88;;;22.00;41.20;;;;;;5015936;28;20213;-82
2023/04/11 09:26:33;;;;;;;1.15;0.98;;;22.00;41.10;;;;;;5016442;28;20193;-82
2023/04/11 09:29:00;;;;;;;1.10;1.00;;;21.90;41.20;;;;;;5015944;28;20201;-82
2023/04/11 09:31:39;;;;;;;1.10;0.90;;;21.90;41.90;;;;;;5015486;28;20228;-82
2023/04/11 09:34:08;;;;;;;1.17;0.95;;;21.90;41.30;;;;;;5015902;28;20270;-82
2023/04/11 09:36:35;;;;;;;2.22;1.10;;;21.90;41.00;;;;;;5015279;28;20680;-82
2023/04/11 09:39:16;;;;;;;1.20;1.00;;;22.00;41.00;;;;;;5016251;28;20196;-82
2023/04/11 09:41:43;;;;;;;1.77;1.10;;;22.00;41.00;;;;;;5015764;28;20240;-82
2023/04/11 09:44:10;;;;;;;1.40;0.90;;;22.00;40.70;;;;;;5015138;28;20222;-82
2023/04/11 09:46:40;;;;;;;1.17;0.90;;;22.20;40.70;;;;;;5015637;28;20327;-82
2023/04/11 09:49:08;;;;;;;1.58;0.70;;;22.20;40.80;;;;;;5015655;28;20205;-82
2023/04/11 09:51:36;;;;;;;1.50;1.10;;;22.20;40.70;;;;;;5015480;28;20211;-82
2023/04/11 09:54:03;;;;;;;1.38;0.90;;;22.20;40.60;;;;;;5015292;28;20217;-82
2023/04/11 09:56:32;;;;;;;0.90;0.90;;;22.10;40.60;;;;;;5015721;28;20663;-82
2023/04/11 09:59:00;;;;;;;1.17;1.08;;;22.20;40.50;;;;;;5015454;28;20296;-82
2023/04/11 10:01:27;;;;;;;1.00;0.90;;;22.30;40.40;;;;;;5016173;28;20236;-82
2023/04/11 10:03:54;;;;;;;1.27;1.05;;;22.30;40.40;;;;;;5016111;28;20267;-82
2023/04/11 10:06:32;;;;;;;1.48;1.10;;;22.40;40.20;;;;;;5014755;28;20268;-82
2023/04/11 10:09:05;;;;;;;1.52;1.02;;;22.40;40.20;;;;;;5015860;28;20189;-82
2023/04/11 10:11:33;;;;;;;1.67;1.00;;;22.40;40.20;;;;;;5015588;28;20193;-82
2023/04/11 10:14:00;;;;;;;1.23;1.00;;;22.50;40.20;;;;;;5014775;28;20242;-82
2023/04/11 10:16:31;;;;;;;1.83;1.08;;;22.50;40.10;;;;;;5015265;28;20216;-82
2023/04/11 10:19:23;;;;;;;1.33;1.00;;;22.50;40.00;;;;;;4998801;28;20185;-82
2023/04/11 10:21:51;;;;;;;1.27;0.90;;;22.60;40.00;;;;;;5013839;28;20228;-83
2023/04/11 10:24:20;;;;;;;1.02;0.93;;;22.50;40.20;;;;;;5014714;28;20197;-82
2023/04/11 10:26:51;;;;;;;1.77;1.13;;;22.50;40.00;;;;;;5014127;28;20655;-82
2023/04/11 10:29:49;;;;;;;1.65;1.10;;;22.50;39.90;;;;;;5014460;28;20201;-82
2023/04/11 10:32:21;;;;;;;1.58;1.00;;;22.50;40.00;;;;;;4939446;29;20689;-83
2023/04/11 10:35:22;;;;;;;1.30;0.85;;;22.50;40.00;;;;;;4999189;28;20200;-83
2023/04/11 10:37:51;;;;;;;1.63;1.15;;;22.50;39.90;;;;;;4939495;29;20202;-82
2023/04/11 10:40:19;;;;;;;1.67;1.02;;;22.50;39.90;;;;;;4998660;28;20266;-82
2023/04/11 10:42:47;;;;;;;1.17;0.98;;;22.40;39.90;;;;;;5014232;28;20221;-83
2023/04/11 10:45:18;;;;;;;0.98;0.90;;;22.40;39.80;;;;;;5031271;28;20638;-82
2023/04/11 10:48:00;;;;;;;1.35;1.15;;;22.40;39.90;;;;;;5016239;28;20192;-82
2023/04/11 10:50:49;;;;;;;1.50;1.00;;;22.40;39.90;;;;;;5016426;28;20196;-82
2023/04/11 10:53:37;;;;;;;2.08;0.90;;;22.40;39.90;;;;;;5009290;28;20223;-81
2023/04/11 10:56:04;;;;;;;2.00;0.90;;;22.40;40.00;;;;;;5022060;28;20229;-82
2023/04/11 10:58:36;;;;;;;1.23;1.10;;;22.40;40.00;;;;;;5015617;28;20198;-82
2023/04/11 11:01:17;;;;;;;1.55;1.00;;;22.40;39.90;;;;;;5014243;28;20259;-82
2023/04/11 11:03:59;;;;;;;1.15;0.95;;;22.50;39.90;;;;;;5014366;28;20220;-82
2023/04/11 11:06:28;;;;;;;1.15;1.02;;;22.50;39.90;;;;;;5014166;28;20201;-82
2023/04/11 11:08:56;;;;;;;1.42;1.05;;;22.50;39.90;;;;;;5014182;28;20201;-82
2023/04/11 11:11:24;;;;;;;2.75;1.17;;;22.50;39.90;;;;;;5014267;28;20651;-82
2023/04/11 11:13:52;;;;;;;1.23;1.10;;;22.50;39.90;;;;;;5014410;28;20233;-82
2023/04/11 11:16:20;;;;;;;1.63;1.10;;;22.50;39.90;;;;;;5019439;28;20233;-82
2023/04/11 11:18:48;;;;;;;1.77;1.15;;;22.50;39.90;;;;;;5017876;28;20200;-82
2023/04/11 11:21:18;;;;;;;1.15;1.00;;;22.50;39.90;;;;;;5002266;28;20268;-82
2023/04/11 11:23:56;;;;;;;1.52;1.00;;;22.50;39.80;;;;;;5018116;28;20220;-82
2023/04/11 11:26:37;;;;;;;1.50;1.13;;;22.50;39.80;;;;;;5018185;28;20200;-82
2023/04/11 11:29:05;;;;;;;1.58;0.93;;;22.50;39.80;;;;;;5020037;28;20211;-82
2023/04/11 11:31:38;;;;;;;1.50;1.13;;;22.50;39.90;;;;;;5019278;28;20197;-82
2023/04/11 11:34:05;;;;;;;1.27;1.00;;;22.50;40.00;;;;;;5017707;28;20244;-82
2023/04/11 11:36:33;;;;;;;1.17;1.08;;;22.50;40.00;;;;;;5017894;28;20617;-82
2023/04/11 11:39:04;;;;;;;1.48;1.10;;;22.50;40.00;;;;;;5003026;28;20698;-80
2023/04/11 11:41:32;;;;;;;1.02;0.90;;;22.50;40.00;;;;;;5018606;28;20204;-81
2023/04/11 11:44:00;;;;;;;1.63;1.10;;;22.50;40.00;;;;;;5001880;28;20221;-82
2023/04/11 11:46:29;;;;;;;1.27;1.05;;;22.50;39.80;;;;;;5018896;28;20201;-83
2023/04/11 11:49:00;;;;;;;1.35;0.90;;;22.50;39.80;;;;;;5017307;28;20232;-83
2023/04/11 11:51:27;;;;;;;1.10;1.00;;;22.50;39.70;;;;;;5017494;28;20201;-81
2023/04/11 11:54:07;;;;;;;1.05;0.95;;;22.50;39.80;;;;;;5000955;28;20223;-81
2023/04/11 11:56:34;;;;;;;1.30;1.00;;;22.50;40.40;;;;;;5034227;28;20770;-80
2023/04/11 11:59:03;;;;;;;2.00;1.15;;;22.50;39.70;;;;;;5017167;28;20235;-83
2023/04/11 12:01:31;;;;;;;1.83;1.00;;;22.50;39.80;;;;;;5000862;28;20646;-83
2023/04/11 12:03:58;;;;;;;1.50;0.93;;;22.50;39.80;;;;;;5016621;28;20703;-83
2023/04/11 12:06:29;;;;;;;1.45;1.08;;;22.50;39.80;;;;;;5017028;28;20201;-81
2023/04/11 12:09:01;;;;;;;0.90;0.90;;;22.50;39.80;;;;;;5019012;28;20532;-81
2023/04/11 12:11:36;;;;;;;1.33;0.90;;;22.60;39.80;;;;;;5017568;28;20671;-81
2023/04/11 12:14:03;;;;;;;2.13;1.05;;;22.60;39.80;;;;;;5017688;28;20228;-81
2023/04/11 12:16:31;;;;;;;1.38;0.75;;;22.60;39.70;;;;;;5000237;28;20729;-81
2023/04/11 12:18:58;;;;;;;1.50;1.00;;;22.60;39.80;;;;;;5018034;28;20580;-82
2023/04/11 12:21:25;;;;;;;1.15;1.00;;;22.60;39.70;;;;;;5016586;28;20258;-83
2023/04/11 12:23:52;;;;;;;1.90;1.00;;;22.60;39.60;;;;;;5016322;28;20221;-83
2023/04/11 12:26:20;;;;;;;1.15;1.05;;;22.60;39.60;;;;;;5015691;28;20200;-83
2023/04/11 12:28:49;;;;;;;1.65;1.00;;;22.60;39.60;;;;;;5016329;28;20688;-83
2023/04/11 12:31:16;;;;;;;0.90;0.68;;;22.60;39.60;;;;;;5017318;28;20295;-80
2023/04/11 12:33:43;;;;;;;1.15;0.93;;;22.50;39.60;;;;;;5001259;28;20223;-81
2023/04/11 12:36:11;;;;;;;1.23;1.05;;;22.50;39.60;;;;;;5016797;28;20223;-81
2023/04/11 12:38:38;;;;;;;1.05;0.93;;;22.50;39.70;;;;;;5017733;28;20239;-80
2023/04/11 12:41:05;;;;;;;1.17;0.90;;;22.50;39.50;;;;;;5017936;28;20216;-80
2023/04/11 12:43:32;;;;;;;1.52;1.05;;;22.50;39.50;;;;;;5016740;28;20217;-82
2023/04/11 12:46:01;;;;;;;1.55;0.90;;;22.50;39.50;;;;;;5016184;28;20656;-84
2023/04/11 12:48:29;;;;;;;0.90;0.82;;;22.50;39.40;;;;;;5016291;28;20655;-84
2023/04/11 12:50:56;;;;;;;1.73;1.10;;;22.50;39.40;;;;;;5000062;28;20215;-81
2023/04/11 12:53:22;;;;;;;1.42;1.08;;;22.50;40.10;;;;;;5016880;28;20221;-81
2023/04/11 12:55:49;;;;;;;2.20;1.10;;;22.50;39.60;;;;;;5000668;28;20201;-82
2023/04/11 12:58:17;;;;;;;1.13;0.93;;;22.40;39.30;;;;;;5016043;28;20208;-81